Time;durP1;ratioP1;P1;durP2;ratioP2;P2;SDS_P1;SDS_P2;PMS_P1;PMS_P2;Temp;Humidity;BMP_temperature;BMP_pressure;BME280_temperature;BME280_humidity;BME280_pressure;Samples;Min_cycle;Max_cycle;Signal;HPM_P1;HPM_P2
2021/07/05 00:04:35;;;;;;;8.07;6.40;;;;;;;17.42;100.00;94262.78;10447731;28;20033;-75
2021/07/05 00:09:36;;;;;;;7.55;5.95;;;;;;;17.32;100.00;94253.06;10447652;28;20033;-74
2021/07/05 00:14:37;;;;;;;9.45;6.38;;;;;;;17.22;100.00;94256.97;10447755;28;20033;-75
2021/07/05 00:19:37;;;;;;;7.95;5.70;;;;;;;17.21;100.00;94246.44;10462547;28;20642;-75
2021/07/05 00:24:38;;;;;;;7.63;6.00;;;;;;;17.21;100.00;94241.78;10447244;28;20036;-75
2021/07/05 00:29:38;;;;;;;7.90;6.13;;;;;;;17.31;100.00;94237.09;10447297;28;20300;-75
2021/07/05 00:34:38;;;;;;;7.93;6.00;;;;;;;17.23;100.00;94225.16;10446189;28;20045;-75
2021/07/05 00:39:39;;;;;;;7.77;6.20;;;;;;;17.14;100.00;94227.13;10447502;28;20291;-75
2021/07/05 00:44:39;;;;;;;6.47;5.77;;;;;;;17.19;100.00;94216.88;10447111;28;20271;-75
2021/07/05 00:49:39;;;;;;;9.83;7.10;;;;;;;17.10;100.00;94215.34;10446476;28;20041;-75
2021/07/05 00:54:41;;;;;;;9.93;6.33;;;;;;;16.96;100.00;94227.22;10446518;28;20033;-74
2021/07/05 00:59:41;;;;;;;9.75;6.90;;;;;;;16.99;100.00;94233.91;10444242;28;20025;-75
2021/07/05 01:04:42;;;;;;;7.07;5.80;;;;;;;16.93;100.00;94236.00;10444225;28;20029;-74
2021/07/05 01:09:42;;;;;;;9.98;6.28;;;;;;;16.66;100.00;94235.28;10444170;28;20032;-75
2021/07/05 01:14:43;;;;;;;10.48;5.97;;;;;;;16.33;100.00;94227.69;10446084;28;20094;-75
2021/07/05 01:19:46;;;;;;;7.38;5.75;;;;;;;16.08;100.00;94228.53;10439993;28;20025;-74
2021/07/05 01:24:48;;;;;;;7.88;6.15;;;;;;;15.94;100.00;94229.47;10443999;28;20052;-74
2021/07/05 01:29:49;;;;;;;12.73;7.43;;;;;;;15.96;100.00;94235.38;10445537;28;20451;-74
2021/07/05 01:34:49;;;;;;;7.10;6.00;;;;;;;15.97;100.00;94231.53;10445500;28;20087;-74
2021/07/05 01:39:50;;;;;;;9.60;6.17;;;;;;;16.02;100.00;94227.91;10445711;28;20557;-74
2021/07/05 01:44:50;;;;;;;6.93;5.90;;;;;;;15.85;100.00;94228.69;10452455;28;20544;-74
2021/07/05 01:49:51;;;;;;;7.07;5.70;;;;;;;15.83;100.00;94218.16;10453337;28;20036;-74
2021/07/05 01:54:51;;;;;;;8.75;6.35;;;;;;;15.80;100.00;94224.22;10453364;28;20622;-74
2021/07/05 01:59:56;;;;;;;7.65;5.95;;;;;;;15.93;100.00;94224.38;10453362;28;20029;-74
2021/07/05 02:04:57;;;;;;;10.23;6.43;;;;;;;15.93;100.00;94227.88;10456831;28;20036;-75
2021/07/05 02:09:57;;;;;;;6.65;5.50;;;;;;;15.95;100.00;94222.13;10451142;28;20029;-74
2021/07/05 02:14:58;;;;;;;9.47;7.17;;;;;;;15.90;100.00;94223.09;10452342;28;20080;-74
2021/07/05 02:19:58;;;;;;;9.00;5.97;;;;;;;15.89;100.00;94232.34;10445754;28;20022;-74
2021/07/05 02:24:58;;;;;;;7.87;6.30;;;;;;;15.75;100.00;94224.34;10428108;28;20565;-74
2021/07/05 02:29:59;;;;;;;8.17;6.57;;;;;;;15.84;100.00;94222.47;10410564;28;20083;-74
2021/07/05 02:35:00;;;;;;;11.32;6.45;;;;;;;15.86;100.00;94222.94;10410570;28;20527;-74
2021/07/05 02:40:00;;;;;;;9.57;6.70;;;;;;;15.83;100.00;94230.91;10425716;28;20037;-75
2021/07/05 02:45:04;;;;;;;8.23;6.80;;;;;;;15.71;100.00;94223.38;10410508;28;20272;-75
2021/07/05 02:50:08;;;;;;;10.52;7.05;;;;;;;15.60;100.00;94233.75;10409652;28;20029;-75
2021/07/05 02:55:09;;;;;;;10.77;6.68;;;;;;;15.34;100.00;94220.94;10408794;28;20040;-74
2021/07/05 03:00:24;;;;;;;10.35;6.68;;;;;;;15.15;100.00;94231.25;10424872;28;20022;-74
2021/07/05 03:05:27;;;;;;;9.40;6.60;;;;;;;15.13;100.00;94225.38;10413423;28;20033;-74
2021/07/05 03:10:33;;;;;;;11.52;7.45;;;;;;;15.17;100.00;94215.53;10409012;28;20029;-74
2021/07/05 03:15:34;;;;;;;11.98;7.85;;;;;;;15.25;100.00;94231.00;10407709;28;20021;-74
2021/07/05 03:20:38;;;;;;;9.82;7.50;;;;;;;15.28;100.00;94226.81;10408498;28;20500;-74
2021/07/05 03:25:39;;;;;;;16.02;7.82;;;;;;;15.18;100.00;94239.56;10439147;28;20679;-74
2021/07/05 03:30:42;;;;;;;10.65;7.00;;;;;;;15.17;100.00;94235.25;10449305;28;20056;-74
2021/07/05 03:35:44;;;;;;;10.07;7.35;;;;;;;15.09;100.00;94232.53;10449273;28;20052;-74
2021/07/05 03:40:47;;;;;;;17.08;10.77;;;;;;;15.15;100.00;94228.56;10449195;28;20029;-74
2021/07/05 03:45:47;;;;;;;9.48;6.63;;;;;;;15.33;100.00;94226.69;10448744;28;20691;-73
2021/07/05 03:50:48;;;;;;;10.05;7.75;;;;;;;15.55;100.00;94225.78;10448900;28;20033;-74
2021/07/05 03:55:48;;;;;;;12.63;7.17;;;;;;;15.57;100.00;94228.16;10448624;28;20187;-76
2021/07/05 04:00:49;;;;;;;8.85;7.03;;;;;;;15.62;100.00;94230.72;10447437;28;20294;-75
2021/07/05 04:05:51;;;;;;;9.68;6.35;;;;;;;15.86;100.00;94236.47;10446484;28;20037;-74
2021/07/05 04:10:51;;;;;;;7.90;6.80;;;;;;;16.28;100.00;94235.19;10447829;28;20915;-74
2021/07/05 04:15:51;;;;;;;9.73;6.20;;;;;;;16.73;100.00;94227.44;10447619;28;20108;-74
2021/07/05 04:20:53;;;;;;;13.73;6.72;;;;;;;17.16;100.00;94208.59;10446854;28;20641;-74
2021/07/05 04:25:54;;;;;;;9.75;6.50;;;;;;;17.59;100.00;94208.31;10446082;28;20098;-73
2021/07/05 04:30:55;;;;;;;8.20;6.07;;;;;;;18.17;100.00;94194.13;10461699;28;20079;-74
2021/07/05 04:35:55;;;;;;;9.68;5.95;;;;;;;18.67;100.00;94196.97;10444932;28;20144;-74
2021/07/05 04:41:02;;;;;;;6.80;5.37;;;;;;;19.01;100.00;94203.19;10443636;28;20037;-74
2021/07/05 04:46:05;;;;;;;6.93;5.07;;;;;;;18.91;100.00;94204.44;10441631;28;20287;-74
2021/07/05 04:51:08;;;;;;;7.47;6.18;;;;;;;18.87;100.00;94206.22;10442057;28;20029;-74
2021/07/05 04:56:08;;;;;;;8.65;5.70;;;;;;;18.83;100.00;94214.25;10443297;28;20052;-74
2021/07/05 05:01:08;;;;;;;10.75;6.38;;;;;;;18.84;100.00;94217.75;10443574;28;20536;-74
2021/07/05 05:06:09;;;;;;;8.07;6.43;;;;;;;18.84;100.00;94223.19;10445093;28;20836;-74
2021/07/05 05:11:09;;;;;;;13.40;7.10;;;;;;;18.87;100.00;94220.63;10446635;28;20028;-74
2021/07/05 05:16:11;;;;;;;11.45;6.85;;;;;;;18.75;100.00;94221.41;10449305;28;20029;-74
2021/07/05 05:21:12;;;;;;;12.48;6.93;;;;;;;18.62;100.00;94217.81;10456535;28;20037;-74
2021/07/05 05:26:12;;;;;;;12.40;6.78;;;;;;;19.36;100.00;94211.69;10455941;28;20036;-74
2021/07/05 05:31:13;;;;;;;17.07;7.63;;;;;;;20.35;100.00;94211.44;10456106;28;20082;-74
2021/07/05 05:36:13;;;;;;;7.90;5.73;;;;;;;21.28;88.80;94218.53;10455799;28;20053;-74
2021/07/05 05:41:15;;;;;;;7.70;4.95;;;;;;;21.94;83.02;94213.38;10455278;28;20081;-74
2021/07/05 05:46:15;;;;;;;15.57;5.65;;;;;;;22.82;73.32;94197.50;10453340;28;20025;-75
2021/07/05 05:51:16;;;;;;;12.82;5.97;;;;;;;23.46;70.97;94203.25;10451563;28;20025;-74
2021/07/05 05:56:17;;;;;;;9.57;5.68;;;;;;;23.80;67.16;94186.09;10451605;28;20522;-74
2021/07/05 06:01:17;;;;;;;15.03;8.33;;;;;;;23.42;69.90;94201.63;10450053;28;20067;-74
2021/07/05 06:06:18;;;;;;;13.13;6.77;;;;;;;23.15;69.62;94215.28;10451328;28;20056;-74
2021/07/05 06:11:19;;;;;;;13.77;7.10;;;;;;;22.74;78.10;94207.50;10449906;28;20024;-74
2021/07/05 06:16:19;;;;;;;14.10;6.97;;;;;;;22.40;75.56;94199.06;10451347;28;20365;-74
2021/07/05 06:21:21;;;;;;;14.60;7.60;;;;;;;23.13;76.35;94195.69;10451764;28;20028;-74
2021/07/05 06:26:21;;;;;;;10.70;6.43;;;;;;;24.43;64.40;94181.00;10450344;28;20068;-74
2021/07/05 06:31:23;;;;;;;10.13;5.07;;;;;;;25.76;58.57;94171.97;10451413;28;20107;-74
2021/07/05 06:36:23;;;;;;;10.07;5.28;;;;;;;27.11;51.05;94161.00;10451251;28;20406;-74
2021/07/05 06:41:25;;;;;;;7.67;4.27;;;;;;;28.19;46.69;94156.50;10451143;28;20029;-74
2021/07/05 06:46:25;;;;;;;8.52;4.47;;;;;;;29.22;44.20;94159.06;10451270;28;20537;-74
2021/07/05 06:51:25;;;;;;;11.07;4.90;;;;;;;29.10;42.58;94158.38;10451438;28;20070;-74
2021/07/05 06:56:26;;;;;;;7.10;3.90;;;;;;;30.43;41.29;94150.75;10450467;28;20021;-74
2021/07/05 07:01:26;;;;;;;8.63;5.07;;;;;;;31.00;37.07;94148.41;10450661;28;20021;-74
2021/07/05 07:06:26;;;;;;;13.17;5.37;;;;;;;29.71;40.72;94153.53;10450269;28;20476;-74
2021/07/05 07:11:27;;;;;;;16.35;6.20;;;;;;;29.29;42.25;94142.44;10450081;28;20043;-74
2021/07/05 07:16:29;;;;;;;18.97;6.67;;;;;;;28.48;46.02;94146.09;10449648;28;20025;-74
2021/07/05 07:21:30;;;;;;;10.73;6.43;;;;;;;27.72;46.94;94151.09;10448541;28;20028;-74
2021/07/05 07:26:30;;;;;;;12.23;6.53;;;;;;;28.01;47.95;94138.03;10449147;28;20485;-74
2021/07/05 07:31:33;;;;;;;15.37;6.90;;;;;;;29.42;42.56;94140.75;10448020;28;20086;-74
2021/07/05 07:36:33;;;;;;;16.40;6.75;;;;;;;29.84;41.31;94143.53;10449007;28;20575;-75
2021/07/05 07:41:34;;;;;;;15.07;5.85;;;;;;;31.09;38.35;94143.13;10448214;28;20035;-74
2021/07/05 07:46:35;;;;;;;13.00;5.25;;;;;;;32.53;37.11;94132.19;10451329;28;20484;-75
2021/07/05 07:51:35;;;;;;;10.30;4.90;;;;;;;32.17;37.02;94130.13;10452057;28;20112;-75
2021/07/05 07:56:35;;;;;;;5.00;4.30;;;;;;;31.37;37.32;94135.56;10451914;28;20021;-74
2021/07/05 08:01:36;;;;;;;8.23;4.03;;;;;;;31.04;39.08;94126.94;10451434;28;20052;-74
2021/07/05 08:06:36;;;;;;;13.38;4.30;;;;;;;33.52;34.86;94120.38;10451529;28;20504;-75
2021/07/05 08:11:37;;;;;;;10.30;3.93;;;;;;;35.37;31.34;94113.88;10451316;28;20052;-75
2021/07/05 08:16:37;;;;;;;8.20;3.33;;;;;;;35.72;31.79;94114.66;10450816;28;20024;-73
2021/07/05 08:21:38;;;;;;;7.77;3.67;;;;;;;35.29;30.44;94118.13;10451052;28;20021;-75
2021/07/05 08:26:39;;;;;;;7.22;4.10;;;;;;;32.86;33.59;94103.66;10450440;28;20511;-75
2021/07/05 08:31:40;;;;;;;5.60;3.55;;;;;;;33.41;34.45;94100.34;10450450;28;20037;-74
2021/07/05 08:36:40;;;;;;;6.22;3.92;;;;;;;33.83;34.67;94097.72;10465503;28;20053;-75
2021/07/05 08:41:41;;;;;;;10.82;3.92;;;;;;;33.98;33.72;94100.88;10450004;28;20064;-75
2021/07/05 08:46:43;;;;;;;10.77;4.45;;;;;;;36.01;31.45;94080.13;10447277;28;20090;-75
2021/07/05 08:51:43;;;;;;;9.80;3.58;;;;;;;37.23;31.13;94077.50;10446522;28;20122;-75
2021/07/05 08:56:44;;;;;;;7.35;3.67;;;;;;;35.75;30.79;94079.44;10446176;28;20025;-75
2021/07/05 09:01:45;;;;;;;17.47;12.40;;;;;;;36.35;30.38;94075.75;10446089;28;20032;-75
2021/07/05 09:07:06;;;;;;;9.15;4.22;;;;;;;37.03;30.99;94061.09;10445891;28;20025;-75
2021/07/05 09:12:08;;;;;;;9.35;3.90;;;;;;;37.05;30.58;94066.25;10446383;28;20106;-75
2021/07/05 09:17:10;;;;;;;12.32;3.78;;;;;;;38.60;28.21;94065.19;10446157;28;20056;-75
2021/07/05 09:22:10;;;;;;;5.75;3.13;;;;;;;39.29;26.25;94057.88;10446074;28;20112;-75
2021/07/05 09:27:16;;;;;;;3.50;2.60;;;;;;;39.74;27.17;94055.25;10446060;28;20037;-72
2021/07/05 09:32:26;;;;;;;8.70;2.83;;;;;;;40.73;25.65;94043.97;10445588;28;20057;-75
2021/07/05 09:37:30;;;;;;;8.70;3.08;;;;;;;41.08;25.64;94037.59;10445200;28;20037;-72
2021/07/05 09:42:36;;;;;;;9.47;2.10;;;;;;;41.33;24.52;94029.75;10445728;28;20562;-72
2021/07/05 09:47:37;;;;;;;6.63;2.60;;;;;;;40.05;25.99;94033.59;10444716;28;20295;-73
2021/07/05 09:52:38;;;;;;;6.10;2.65;;;;;;;37.52;28.63;94025.09;10444938;28;20036;-76
2021/07/05 09:57:47;;;;;;;4.07;2.72;;;;;;;37.08;28.34;94020.50;10445338;28;20024;-73
2021/07/05 10:03:01;;;;;;;7.80;2.90;;;;;;;35.16;30.93;94031.56;10446891;28;20504;-73
2021/07/05 10:08:07;;;;;;;5.65;2.70;;;;;;;35.16;31.81;94021.16;10452181;28;20523;-73
2021/07/05 10:13:11;;;;;;;5.45;2.35;;;;;;;37.55;29.25;94016.53;10452154;28;20096;-73
2021/07/05 10:18:12;;;;;;;2.75;1.80;;;;;;;40.29;26.96;94006.13;10452148;28;20021;-73
2021/07/05 10:23:14;;;;;;;4.68;2.00;;;;;;;41.89;24.52;94009.16;10452035;28;20038;-73
2021/07/05 10:28:17;;;;;;;7.53;2.60;;;;;;;41.89;24.74;94004.28;10451359;28;20069;-73
2021/07/05 10:33:17;;;;;;;13.45;3.67;;;;;;;39.52;26.43;94013.38;10451884;28;20048;-73
2021/07/05 10:38:22;;;;;;;4.97;1.70;;;;;;;41.94;24.00;93991.53;10451385;28;20883;-73
2021/07/05 10:43:42;;;;;;;8.20;2.08;;;;;;;43.42;22.79;93987.75;10451597;28;20029;-73
2021/07/05 10:48:43;;;;;;;25.48;5.75;;;;;;;43.93;22.50;93985.91;10454460;28;20408;-73
2021/07/05 10:53:44;;;;;;;280.70;40.22;;;;;;;42.49;23.33;93984.06;10454024;28;20029;-73
2021/07/05 10:58:44;;;;;;;4.28;2.15;;;;;;;43.44;23.38;93980.28;10454177;28;20021;-73
2021/07/05 11:03:45;;;;;;;3.60;2.40;;;;;;;40.17;25.22;93987.50;10453983;28;20029;-73
2021/07/05 11:08:51;;;;;;;4.85;2.17;;;;;;;38.29;28.37;93982.00;10453624;28;20057;-73
2021/07/05 11:14:13;;;;;;;4.85;2.50;;;;;;;35.46;31.17;93979.84;10453961;28;20033;-73
2021/07/05 11:19:34;;;;;;;287.73;39.97;;;;;;;34.71;33.64;93980.34;10452922;28;20069;-72
2021/07/05 11:24:41;;;;;;;41.00;10.35;;;;;;;33.60;34.72;93984.44;10453113;28;20029;-73
2021/07/05 11:29:45;;;;;;;21.27;6.72;;;;;;;32.91;35.98;93977.13;10453102;28;20033;-73
2021/07/05 11:34:46;;;;;;;13.43;4.03;;;;;;;33.20;35.90;93971.59;10452434;28;20493;-73
2021/07/05 11:39:49;;;;;;;23.15;5.18;;;;;;;32.92;36.27;93984.22;10452476;28;20100;-73
2021/07/05 11:44:56;;;;;;;9.23;3.00;;;;;;;31.73;37.74;93968.22;10450932;28;20071;-73
2021/07/05 11:50:20;;;;;;;4.53;3.20;;;;;;;30.97;38.33;93963.31;10448653;28;20029;-73
2021/07/05 11:55:23;;;;;;;6.10;3.50;;;;;;;30.75;39.85;93971.22;10448348;28;20534;-73
2021/07/05 12:00:27;;;;;;;4.80;3.10;;;;;;;30.10;40.25;93970.25;10448184;28;20067;-73
2021/07/05 12:05:27;;;;;;;7.05;3.00;;;;;;;30.39;41.74;93964.25;10447944;28;20024;-73
2021/07/05 12:10:29;;;;;;;4.97;3.28;;;;;;;30.34;42.22;93976.59;10447669;28;20431;-73
2021/07/05 12:15:29;;;;;;;7.78;2.72;;;;;;;30.73;40.82;93976.41;10447663;28;20033;-73
2021/07/05 12:20:30;;;;;;;9.80;2.80;;;;;;;30.55;41.63;93976.72;10447794;28;20016;-73
2021/07/05 12:25:30;;;;;;;4.45;3.00;;;;;;;30.17;42.92;93972.91;10446726;28;20671;-73
2021/07/05 12:30:31;;;;;;;5.37;3.23;;;;;;;30.12;43.95;93976.13;10447165;28;20060;-73
2021/07/05 12:35:31;;;;;;;11.37;3.07;;;;;;;30.97;41.68;93961.31;10446736;28;20520;-73
2021/07/05 12:40:34;;;;;;;9.32;3.50;;;;;;;30.99;42.20;93980.31;10446768;28;20033;-73
2021/07/05 12:45:39;;;;;;;7.97;3.15;;;;;;;31.18;41.49;93974.03;10446627;28;20102;-73
2021/07/05 12:50:45;;;;;;;7.50;3.38;;;;;;;31.07;40.13;93973.47;10459609;28;20035;-73
2021/07/05 12:55:53;;;;;;;9.50;3.67;;;;;;;31.07;40.18;93975.47;10461998;28;20033;-73
2021/07/05 13:00:54;;;;;;;14.23;3.03;;;;;;;31.23;38.74;93975.56;10446179;28;20539;-73
2021/07/05 13:06:11;;;;;;;6.00;2.90;;;;;;;31.09;38.71;93964.69;10445598;28;20079;-73
2021/07/05 13:11:14;;;;;;;3.97;2.97;;;;;;;30.45;39.38;93968.16;10444362;28;20494;-74
2021/07/05 13:16:23;;;;;;;4.45;2.90;;;;;;;30.18;40.03;93973.66;10445776;28;20112;-74
2021/07/05 13:21:32;;;;;;;5.70;3.25;;;;;;;29.91;40.22;93988.31;10446205;28;20021;-74
2021/07/05 13:26:35;;;;;;;6.20;3.22;;;;;;;29.69;39.89;93987.75;10445680;28;20036;-74
2021/07/05 13:31:38;;;;;;;6.80;3.30;;;;;;;29.38;41.96;93984.97;10445470;28;20455;-74
2021/07/05 13:36:38;;;;;;;7.00;2.90;;;;;;;28.64;44.93;93991.59;10445713;28;20077;-74
2021/07/05 13:41:39;;;;;;;5.40;3.10;;;;;;;28.60;44.57;93982.50;10452294;28;20563;-74
2021/07/05 13:46:39;;;;;;;12.23;3.60;;;;;;;28.98;43.65;93984.56;10453183;28;20508;-74
2021/07/05 13:51:39;;;;;;;4.47;3.07;;;;;;;29.02;44.25;93990.09;10453280;28;20043;-74
2021/07/05 13:56:40;;;;;;;8.17;3.67;;;;;;;28.70;44.82;93989.19;10452710;28;20496;-74
2021/07/05 14:01:40;;;;;;;7.05;3.83;;;;;;;29.13;43.36;93985.22;10453122;28;20036;-74
2021/07/05 14:06:41;;;;;;;7.83;2.97;;;;;;;29.35;42.97;93979.47;10452411;28;20142;-74
2021/07/05 14:11:41;;;;;;;7.03;3.77;;;;;;;28.94;41.31;93986.59;10452461;28;20028;-74
2021/07/05 14:16:41;;;;;;;4.93;3.00;;;;;;;29.31;40.62;93993.38;10452498;28;20079;-74
2021/07/05 14:21:42;;;;;;;7.30;3.17;;;;;;;29.31;39.91;93996.91;10451044;28;20047;-74
2021/07/05 14:26:42;;;;;;;6.60;3.38;;;;;;;29.18;46.71;94014.41;10451074;28;20830;-74
2021/07/05 14:31:43;;;;;;;4.77;3.33;;;;;;;28.64;65.05;94016.47;10451179;28;20032;-74
2021/07/05 14:36:43;;;;;;;17.43;4.67;;;;;;;28.18;87.30;94044.44;10448229;28;20128;-74
2021/07/05 14:41:43;;;;;;;19.97;7.13;;;;;;;26.03;100.00;94067.09;10449736;28;20021;-73
2021/07/05 14:46:44;;;;;;;9.40;4.93;;;;;;;22.74;100.00;94075.25;10442343;28;20029;-73
2021/07/05 14:51:44;;;;;;;7.70;5.03;;;;;;;21.82;100.00;94066.59;10450371;28;20440;-74
2021/07/05 14:56:45;;;;;;;11.35;7.15;;;;;;;20.60;100.00;94069.38;10450034;28;20048;-73
2021/07/05 15:01:45;;;;;;;11.13;7.03;;;;;;;20.18;100.00;94067.94;10449989;28;20044;-73
2021/07/05 15:06:45;;;;;;;11.20;7.80;;;;;;;19.84;100.00;94078.34;10445560;28;20038;-73
2021/07/05 15:11:46;;;;;;;9.02;6.65;;;;;;;19.61;100.00;94073.41;10449913;28;20060;-73
2021/07/05 15:16:46;;;;;;;11.63;6.80;;;;;;;19.83;100.00;94063.16;10449942;28;20182;-73
2021/07/05 15:21:51;;;;;;;13.17;7.50;;;;;;;19.96;100.00;94072.06;10449425;28;20111;-73
2021/07/05 15:26:51;;;;;;;12.55;7.65;;;;;;;20.13;100.00;94066.25;10448024;28;20118;-73
2021/07/05 15:31:51;;;;;;;10.10;6.97;;;;;;;20.42;100.00;94058.00;10447369;28;20082;-73
2021/07/05 15:36:52;;;;;;;9.07;7.07;;;;;;;20.75;100.00;94062.31;10448715;28;20802;-73
2021/07/05 15:41:53;;;;;;;15.00;7.10;;;;;;;21.00;100.00;94071.88;10449028;28;20287;-73
2021/07/05 15:46:53;;;;;;;17.83;8.53;;;;;;;21.38;100.00;94085.16;10463922;28;20067;-73
2021/07/05 15:51:53;;;;;;;12.38;8.10;;;;;;;21.58;100.00;94078.59;10448239;28;20135;-73
2021/07/05 15:56:54;;;;;;;17.60;9.27;;;;;;;21.62;100.00;94095.09;10447902;28;20021;-73
2021/07/05 16:01:54;;;;;;;14.77;7.80;;;;;;;21.77;100.00;94090.69;10447519;28;20067;-73
2021/07/05 16:06:55;;;;;;;11.85;8.00;;;;;;;21.75;100.00;94106.69;10447818;28;20030;-73
2021/07/05 16:11:55;;;;;;;15.73;9.67;;;;;;;21.99;100.00;94116.53;10447548;28;20408;-73
2021/07/05 16:16:56;;;;;;;17.93;9.00;;;;;;;22.23;100.00;94120.09;10447082;28;20275;-73
2021/07/05 16:21:56;;;;;;;15.05;9.35;;;;;;;22.45;100.00;94132.25;10446892;28;20029;-74
2021/07/05 16:26:56;;;;;;;18.03;8.43;;;;;;;22.54;100.00;94130.09;10446740;28;20039;-74
2021/07/05 16:31:57;;;;;;;15.07;8.70;;;;;;;22.60;100.00;94127.84;10446931;28;20287;-74
2021/07/05 16:36:57;;;;;;;14.75;8.55;;;;;;;22.72;100.00;94135.88;10446639;28;20044;-74
2021/07/05 16:42:01;;;;;;;15.63;10.20;;;;;;;22.83;100.00;94141.53;10447320;28;20112;-74
2021/07/05 16:47:02;;;;;;;19.77;8.02;;;;;;;22.75;100.00;94146.09;10446416;28;20286;-75
2021/07/05 16:57:22;;;;;;;12.77;7.78;;;;;;;22.87;100.00;94172.50;10446887;28;20033;-74
2021/07/05 17:02:25;;;;;;;11.00;7.00;;;;;;;22.77;100.00;94168.44;10446423;28;20037;-74
2021/07/05 17:07:25;;;;;;;13.40;7.07;;;;;;;22.64;100.00;94164.28;10443965;28;20037;-74
2021/07/05 17:12:26;;;;;;;10.38;6.20;;;;;;;22.57;100.00;94170.44;10446930;28;20029;-74
2021/07/05 17:17:26;;;;;;;9.77;4.60;;;;;;;22.40;100.00;94182.66;10454950;28;20100;-74
2021/07/05 17:22:26;;;;;;;8.03;5.07;;;;;;;22.44;100.00;94179.97;10454724;28;20025;-74
2021/07/05 17:27:27;;;;;;;11.77;5.57;;;;;;;22.27;100.00;94187.47;10454190;28;20287;-74
2021/07/05 17:32:27;;;;;;;6.77;4.93;;;;;;;22.34;100.00;94195.84;10448785;28;20043;-74
2021/07/05 17:37:28;;;;;;;9.17;6.23;;;;;;;22.26;100.00;94196.03;10429777;28;20045;-74
2021/07/05 17:42:28;;;;;;;9.35;5.63;;;;;;;22.07;100.00;94210.50;10451199;28;20029;-74
2021/07/05 17:47:30;;;;;;;9.17;6.23;;;;;;;22.13;100.00;94195.38;10452679;28;20056;-74
2021/07/05 17:52:31;;;;;;;14.88;6.47;;;;;;;22.09;100.00;94205.44;10450537;28;20287;-74
2021/07/05 17:57:32;;;;;;;9.18;5.55;;;;;;;22.02;100.00;94214.34;10452877;28;20542;-77
2021/07/05 18:02:32;;;;;;;10.98;6.13;;;;;;;22.12;100.00;94243.84;10452086;28;20054;-74
2021/07/05 18:07:33;;;;;;;9.90;6.37;;;;;;;21.85;100.00;94262.03;10451197;28;20550;-75
2021/07/05 18:12:34;;;;;;;13.75;7.63;;;;;;;21.48;100.00;94276.00;10451782;28;20538;-75
2021/07/05 18:17:35;;;;;;;19.15;7.63;;;;;;;20.70;100.00;94287.28;10439428;28;20013;-75
2021/07/05 18:22:35;;;;;;;12.32;8.75;;;;;;;19.85;100.00;94303.53;10423852;28;20029;-74
2021/07/05 18:27:36;;;;;;;17.03;9.70;;;;;;;19.50;100.00;94308.66;10427507;28;20025;-75
2021/07/05 18:32:36;;;;;;;18.25;11.85;;;;;;;18.89;100.00;94318.31;10430384;28;20036;-74
2021/07/05 18:37:37;;;;;;;19.48;12.88;;;;;;;18.58;100.00;94339.38;10424696;28;20124;-74
2021/07/05 18:42:38;;;;;;;22.52;11.82;;;;;;;18.48;100.00;94336.28;10429913;28;20412;-74
2021/07/05 18:47:39;;;;;;;15.40;10.93;;;;;;;18.25;100.00;94355.66;10431219;28;20448;-74
2021/07/05 18:52:40;;;;;;;19.10;13.52;;;;;;;18.39;100.00;94355.38;10427193;28;20027;-77
2021/07/05 18:57:41;;;;;;;15.73;10.80;;;;;;;18.53;100.00;94363.28;10429134;28;20025;-75
2021/07/05 19:02:46;;;;;;;18.88;12.05;;;;;;;18.55;100.00;94361.81;10433772;28;20400;-75
2021/07/05 19:07:47;;;;;;;19.48;12.07;;;;;;;18.71;100.00;94369.38;10433760;28;20779;-75
2021/07/05 19:12:48;;;;;;;17.48;11.95;;;;;;;18.82;100.00;94367.03;10430277;28;20025;-75
2021/07/05 19:17:48;;;;;;;17.40;12.25;;;;;;;18.81;100.00;94371.72;10431926;28;20050;-74
2021/07/05 19:22:49;;;;;;;14.23;10.67;;;;;;;18.72;100.00;94363.59;10424347;28;20722;-74
2021/07/05 19:27:49;;;;;;;13.65;9.75;;;;;;;18.70;100.00;94363.16;10426412;28;20458;-74
2021/07/05 19:32:51;;;;;;;13.67;9.17;;;;;;;18.70;100.00;94365.06;10426551;28;20104;-75
2021/07/05 19:37:51;;;;;;;17.02;10.70;;;;;;;18.78;100.00;94364.19;10427465;28;20666;-76
2021/07/05 19:42:51;;;;;;;14.83;11.13;;;;;;;18.93;100.00;94368.25;10448096;28;20059;-79
2021/07/05 19:47:52;;;;;;;15.88;11.00;;;;;;;19.06;100.00;94366.34;10446816;28;20033;-75
2021/07/05 19:52:52;;;;;;;17.90;11.90;;;;;;;19.01;100.00;94372.03;10448378;28;20519;-75
2021/07/05 19:57:53;;;;;;;16.00;12.40;;;;;;;19.05;100.00;94373.75;10446656;28;20025;-75
2021/07/05 20:02:53;;;;;;;18.52;13.07;;;;;;;19.13;100.00;94385.66;10444842;28;20055;-75
2021/07/05 20:07:53;;;;;;;19.07;13.07;;;;;;;19.18;100.00;94399.09;10442039;28;20134;-76
2021/07/05 20:12:54;;;;;;;16.77;12.50;;;;;;;19.18;100.00;94401.81;10446086;28;20065;-75
2021/07/05 20:17:54;;;;;;;19.20;11.33;;;;;;;19.16;100.00;94385.00;10446223;28;20021;-75
2021/07/05 20:22:55;;;;;;;14.75;10.70;;;;;;;19.13;100.00;94385.66;10446497;28;20789;-75
2021/07/05 20:27:55;;;;;;;15.33;11.60;;;;;;;19.05;100.00;94392.81;10446378;28;20025;-75
2021/07/05 20:32:56;;;;;;;22.53;13.30;;;;;;;18.99;100.00;94396.06;10445956;28;20033;-75
2021/07/05 20:37:56;;;;;;;21.13;13.70;;;;;;;19.01;100.00;94399.25;10446300;28;20024;-75
2021/07/05 20:42:57;;;;;;;21.65;15.05;;;;;;;18.90;100.00;94391.50;10445876;28;20441;-75
2021/07/05 20:47:59;;;;;;;25.33;17.52;;;;;;;18.92;100.00;94391.97;10445641;28;20025;-75
2021/07/05 20:53:01;;;;;;;27.15;19.35;;;;;;;19.05;100.00;94402.91;10445871;28;20527;-75
2021/07/05 20:58:01;;;;;;;30.65;18.48;;;;;;;18.93;100.00;94404.44;10445474;28;20155;-75
2021/07/05 21:03:01;;;;;;;26.95;18.73;;;;;;;18.93;100.00;94404.44;10439946;28;20031;-75
2021/07/05 21:08:02;;;;;;;28.50;18.43;;;;;;;18.94;100.00;94402.53;10459997;28;20028;-75
2021/07/05 21:13:03;;;;;;;28.20;18.17;;;;;;;19.01;100.00;94402.00;10445637;28;20040;-75
2021/07/05 21:18:05;;;;;;;25.88;18.30;;;;;;;18.88;100.00;94406.56;10445734;28;20075;-75
2021/07/05 21:23:05;;;;;;;28.05;17.90;;;;;;;18.74;100.00;94399.47;10444991;28;20033;-75
2021/07/05 21:28:06;;;;;;;24.80;17.77;;;;;;;18.82;100.00;94389.63;10444981;28;20587;-75
2021/07/05 21:33:06;;;;;;;22.90;14.68;;;;;;;18.74;100.00;94390.47;10444481;28;20029;-75
2021/07/05 21:38:07;;;;;;;22.92;14.23;;;;;;;18.73;100.00;94381.53;10444935;28;20381;-75
2021/07/05 21:43:07;;;;;;;16.50;11.00;;;;;;;18.70;100.00;94367.78;10443748;28;20035;-75
2021/07/05 21:48:08;;;;;;;14.63;11.10;;;;;;;18.59;100.00;94370.13;10444369;28;20107;-75
2021/07/05 21:53:08;;;;;;;17.92;12.82;;;;;;;18.66;100.00;94377.78;10444349;28;20111;-75
2021/07/05 21:58:09;;;;;;;13.15;10.50;;;;;;;18.61;100.00;94385.00;10445042;28;20106;-75
2021/07/05 22:03:09;;;;;;;15.70;11.00;;;;;;;18.56;100.00;94387.91;10452050;28;20138;-75
2021/07/05 22:08:10;;;;;;;15.70;10.80;;;;;;;18.51;100.00;94379.94;10458995;28;20044;-75
2021/07/05 22:13:10;;;;;;;14.80;11.27;;;;;;;18.44;100.00;94379.69;10451459;28;20029;-75
2021/07/05 22:18:11;;;;;;;18.15;11.73;;;;;;;18.41;100.00;94378.41;10449712;28;21057;-75
2021/07/05 22:23:12;;;;;;;14.70;10.52;;;;;;;18.32;100.00;94385.88;10450529;28;20036;-75
2021/07/05 22:28:13;;;;;;;16.30;10.50;;;;;;;18.16;100.00;94385.63;10449479;28;20033;-75
2021/07/05 22:33:14;;;;;;;16.45;11.25;;;;;;;18.06;100.00;94383.31;10450417;28;20840;-75
2021/07/05 22:38:14;;;;;;;14.33;10.80;;;;;;;17.90;100.00;94385.75;10450823;28;20040;-75
2021/07/05 22:43:15;;;;;;;19.17;13.63;;;;;;;17.87;100.00;94386.41;10449481;28;20021;-75
2021/07/05 22:48:15;;;;;;;19.10;14.00;;;;;;;17.86;100.00;94390.25;10450436;28;20283;-75
2021/07/05 22:53:15;;;;;;;21.47;12.53;;;;;;;18.00;100.00;94400.94;10449849;28;20032;-75
2021/07/05 22:58:16;;;;;;;19.67;12.37;;;;;;;17.93;100.00;94404.97;10450021;28;20340;-75
2021/07/05 23:03:16;;;;;;;18.37;13.10;;;;;;;17.86;100.00;94404.66;10449782;28;20464;-75
2021/07/05 23:08:17;;;;;;;15.90;12.27;;;;;;;17.78;100.00;94400.06;10449674;28;20025;-75